Time;durP1;ratioP1;P1;durP2;ratioP2;P2;SDS_P1;SDS_P2;PMS_P1;PMS_P2;Temp;Humidity;BMP_temperature;BMP_pressure;BME280_temperature;BME280_humidity;BME280_pressure;Samples;Min_cycle;Max_cycle;Signal;HPM_P1;HPM_P2
2021/08/02 00:01:08;;;;;;;18.38;8.02;;;;;;;21.58;50.74;99186.44;6135285;23;20020;-75
2021/08/02 00:03:46;;;;;;;15.63;7.82;;;;;;;21.50;50.84;99179.28;6111132;23;20261;-74
2021/08/02 00:06:16;;;;;;;14.80;7.83;;;;;;;21.46;50.86;99193.47;6184595;23;20020;-73
2021/08/02 00:08:42;;;;;;;20.15;9.07;;;;;;;21.40;50.65;99184.22;6110845;23;20066;-74
2021/08/02 00:11:08;;;;;;;16.33;8.13;;;;;;;21.36;51.28;99192.94;6211153;23;20021;-74
2021/08/02 00:13:34;;;;;;;12.65;7.70;;;;;;;21.37;51.19;99198.22;6184401;23;20422;-74
2021/08/02 00:16:02;;;;;;;13.43;7.38;;;;;;;21.40;51.24;99195.09;6135372;23;20025;-73
2021/08/02 00:18:29;;;;;;;16.42;8.38;;;;;;;21.37;50.83;99203.66;6184306;22;20452;-74
2021/08/02 00:20:56;;;;;;;18.38;7.53;;;;;;;21.29;51.16;99193.72;6185268;23;20028;-74
2021/08/02 00:23:22;;;;;;;12.80;7.57;;;;;;;21.29;51.53;99209.19;6185865;23;20023;-75
2021/08/02 00:25:48;;;;;;;12.00;7.40;;;;;;;21.24;50.98;99211.63;6160989;23;20025;-74
2021/08/02 00:28:14;;;;;;;12.70;7.32;;;;;;;21.15;51.42;99212.81;6185354;23;20020;-73
2021/08/02 00:30:40;;;;;;;16.17;7.55;;;;;;;21.20;51.66;99211.19;6111611;23;20107;-74
2021/08/02 00:33:08;;;;;;;14.05;7.28;;;;;;;21.28;51.50;99212.94;6136664;23;20157;-75
2021/08/02 00:35:39;;;;;;;8.18;6.55;;;;;;;21.32;50.98;99223.22;6211996;23;20452;-76
2021/08/02 00:38:08;;;;;;;15.00;7.00;;;;;;;21.31;50.86;99228.84;6111740;23;20022;-76
2021/08/02 00:40:47;;;;;;;14.80;7.00;;;;;;;21.34;51.26;99221.19;6136745;23;20020;-74
2021/08/02 00:43:35;;;;;;;15.73;7.10;;;;;;;21.37;51.10;99230.00;6136426;23;20020;-74
2021/08/02 00:46:01;;;;;;;15.32;7.53;;;;;;;21.41;50.64;99232.13;6212041;23;20016;-75
2021/08/02 00:48:28;;;;;;;25.48;10.05;;;;;;;21.39;50.59;99230.63;6136008;23;20099;-76
2021/08/02 00:50:58;;;;;;;13.40;7.07;;;;;;;21.38;50.73;99235.22;6161109;23;20020;-76
2021/08/02 00:53:25;;;;;;;13.30;6.82;;;;;;;21.30;50.76;99232.63;6161171;23;20356;-74
2021/08/02 00:55:57;;;;;;;17.98;6.85;;;;;;;21.32;50.53;99246.84;6185639;23;20512;-76
2021/08/02 00:58:26;;;;;;;15.77;7.15;;;;;;;21.37;50.96;99243.59;6136890;23;20166;-75
2021/08/02 01:00:53;;;;;;;19.35;6.63;;;;;;;21.45;50.49;99241.56;6184938;23;20452;-78
2021/08/02 01:03:29;;;;;;;15.82;7.05;;;;;;;21.53;50.45;99244.16;6164793;23;20020;-80
2021/08/02 01:05:59;;;;;;;14.43;6.90;;;;;;;21.63;50.23;99243.00;6161968;23;20020;-78
2021/08/02 01:08:31;;;;;;;10.77;6.53;;;;;;;21.68;50.09;99240.50;6136758;23;20020;-80
2021/08/02 01:11:03;;;;;;;30.88;7.75;;;;;;;21.69;50.04;99247.63;6186126;23;20344;-78
2021/08/02 01:13:32;;;;;;;21.73;6.97;;;;;;;21.68;50.00;99240.50;6113036;23;20471;-77
2021/08/02 01:16:01;;;;;;;40.53;20.98;;;;;;;21.75;49.79;99255.84;6161182;23;20023;-76
2021/08/02 01:18:30;;;;;;;19.85;6.82;;;;;;;21.77;50.13;99255.66;6186195;23;20024;-79
2021/08/02 01:21:03;;;;;;;15.77;7.15;;;;;;;21.82;49.97;99253.19;6112385;23;20017;-74
2021/08/02 01:23:29;;;;;;;17.67;6.95;;;;;;;21.91;49.88;99256.59;6162656;23;20031;-79
2021/08/02 01:25:57;;;;;;;14.13;7.07;;;;;;;21.91;49.71;99253.88;6160951;22;20024;-79
2021/08/02 01:28:24;;;;;;;19.98;7.43;;;;;;;21.89;49.53;99264.97;6211417;23;20070;-79
2021/08/02 01:30:53;;;;;;;15.15;7.55;;;;;;;21.92;49.46;99270.00;6185198;23;20095;-79
2021/08/02 01:33:30;;;;;;;16.40;7.45;;;;;;;21.88;49.67;99268.72;6161421;23;20347;-81
2021/08/02 01:36:06;;;;;;;21.88;7.85;;;;;;;21.94;49.63;99257.03;6163233;23;20062;-77
2021/08/02 01:38:33;;;;;;;18.92;7.13;;;;;;;21.96;49.57;99254.13;6161578;23;20024;-79
2021/08/02 01:41:03;;;;;;;19.27;6.53;;;;;;;22.04;49.49;99263.00;6211743;23;20087;-77
2021/08/02 01:43:30;;;;;;;32.45;7.20;;;;;;;22.04;49.52;99257.53;6161582;23;20340;-79
2021/08/02 01:46:11;;;;;;;21.13;7.30;;;;;;;22.05;49.25;99264.66;6159813;23;20056;-78
2021/08/02 01:49:06;;;;;;;21.85;8.32;;;;;;;22.09;49.54;99267.84;6134934;23;20016;-79
2021/08/02 01:51:45;;;;;;;19.85;7.22;;;;;;;22.15;49.41;99271.66;6155614;23;20464;-77
2021/08/02 01:54:22;;;;;;;20.08;6.40;;;;;;;22.20;49.32;99278.19;6136687;23;20066;-79
2021/08/02 01:57:18;;;;;;;15.70;7.15;;;;;;;22.23;49.24;99277.81;6161403;22;20411;-77
2021/08/02 02:00:15;;;;;;;13.93;7.22;;;;;;;22.22;49.12;99278.81;6211524;23;20069;-81
2021/08/02 02:02:50;;;;;;;13.68;6.80;;;;;;;22.26;48.94;99271.09;6161556;23;20499;-80
2021/08/02 02:05:19;;;;;;;13.48;7.22;;;;;;;22.42;48.94;99278.97;6138267;23;20073;-79
2021/08/02 02:08:12;;;;;;;13.32;7.28;;;;;;;22.42;48.42;99276.25;6162465;23;20020;-80
2021/08/02 02:10:45;;;;;;;21.20;7.35;;;;;;;22.45;48.60;99286.72;6165567;23;20538;-78
2021/08/02 02:13:15;;;;;;;53.35;7.85;;;;;;;22.40;48.59;99283.75;6136711;23;20069;-78
2021/08/02 02:15:43;;;;;;;15.45;7.20;;;;;;;22.44;48.51;99285.03;6136068;23;20024;-75
2021/08/02 02:18:09;;;;;;;17.17;7.13;;;;;;;22.48;48.46;99283.59;6184752;23;20073;-78
2021/08/02 02:20:37;;;;;;;23.02;7.30;;;;;;;22.47;48.08;99284.66;6160372;23;20463;-78
2021/08/02 02:23:03;;;;;;;10.00;6.25;;;;;;;22.55;48.05;99287.19;6135852;23;20021;-78
2021/08/02 02:25:30;;;;;;;13.27;6.97;;;;;;;22.63;47.84;99290.81;6112040;23;20056;-76
2021/08/02 02:27:57;;;;;;;24.55;7.63;;;;;;;22.61;48.06;99292.91;6136717;23;20017;-78
2021/08/02 02:30:24;;;;;;;19.60;7.72;;;;;;;22.67;48.63;99297.53;6136465;23;20031;-79
2021/08/02 02:32:50;;;;;;;39.80;11.57;;;;;;;22.71;48.60;99290.63;6111975;23;20440;-77
2021/08/02 02:35:20;;;;;;;43.23;13.80;;;;;;;22.75;48.96;99302.81;6161489;23;20028;-78
2021/08/02 02:37:47;;;;;;;23.63;9.70;;;;;;;22.84;48.73;99296.16;6185188;23;20239;-77
2021/08/02 02:40:14;;;;;;;32.97;11.85;;;;;;;22.91;48.21;99297.06;6160737;23;20012;-78
2021/08/02 02:42:40;;;;;;;30.73;13.55;;;;;;;22.93;47.73;99299.56;6134913;23;20459;-79
2021/08/02 02:45:12;;;;;;;28.27;14.75;;;;;;;22.92;47.97;99298.72;6186133;23;20020;-77
2021/08/02 02:47:38;;;;;;;32.10;13.80;;;;;;;22.92;47.77;99293.28;6160436;23;20017;-78
2021/08/02 02:50:05;;;;;;;28.25;11.15;;;;;;;22.96;47.17;99294.53;6184836;23;20077;-78
2021/08/02 02:52:32;;;;;;;22.15;12.20;;;;;;;23.00;47.15;99301.28;6160153;23;20028;-77
2021/08/02 02:54:58;;;;;;;22.77;10.82;;;;;;;23.03;46.95;99295.41;6160390;23;20026;-79
2021/08/02 02:57:25;;;;;;;25.33;11.38;;;;;;;23.03;46.65;99294.56;6160909;23;20062;-79
2021/08/02 02:59:51;;;;;;;15.50;10.25;;;;;;;23.09;46.77;99301.91;6184685;23;20502;-79
2021/08/02 03:02:17;;;;;;;19.92;9.77;;;;;;;23.10;46.55;99300.06;6160638;23;20021;-78
2021/08/02 03:04:45;;;;;;;29.95;8.98;;;;;;;23.09;46.52;99287.44;6141173;23;20101;-80
2021/08/02 03:07:12;;;;;;;29.05;8.70;;;;;;;23.25;46.31;99295.28;6136218;23;20321;-75
2021/08/02 03:09:40;;;;;;;15.80;6.97;;;;;;;23.33;45.74;99297.81;6262827;22;20020;-78
2021/08/02 03:12:10;;;;;;;21.40;8.02;;;;;;;23.45;45.78;99296.16;6113307;23;20309;-77
2021/08/02 03:14:36;;;;;;;16.35;7.32;;;;;;;23.54;45.42;99301.41;6159727;23;20042;-77
2021/08/02 03:17:05;;;;;;;15.38;7.45;;;;;;;23.59;45.32;99304.38;6159862;23;20444;-78
2021/08/02 03:19:31;;;;;;;22.52;7.63;;;;;;;23.60;45.30;99295.13;6184747;22;20012;-77
2021/08/02 03:21:59;;;;;;;19.63;6.45;;;;;;;23.76;45.06;99302.94;6160175;23;20466;-77
2021/08/02 03:24:32;;;;;;;11.20;6.37;;;;;;;23.89;44.92;99294.75;6160394;23;20047;-77
2021/08/02 03:27:09;;;;;;;18.33;6.68;;;;;;;24.01;44.84;99297.69;6159949;23;20472;-79
2021/08/02 03:29:42;;;;;;;18.08;6.32;;;;;;;24.09;44.50;99300.19;6160359;23;20017;-77
2021/08/02 03:32:16;;;;;;;15.23;6.40;;;;;;;24.22;44.64;99307.53;6160285;23;20416;-75
2021/08/02 03:34:42;;;;;;;20.58;6.60;;;;;;;24.31;44.44;99306.28;6185206;22;20020;-75
2021/08/02 03:37:10;;;;;;;13.38;6.80;;;;;;;24.34;44.44;99311.31;6159745;23;20478;-74
2021/08/02 03:39:36;;;;;;;15.57;6.53;;;;;;;24.49;44.00;99311.13;6110556;23;20030;-77
2021/08/02 03:42:02;;;;;;;25.38;6.30;;;;;;;24.61;43.99;99308.56;6110633;23;20020;-76
2021/08/02 03:44:28;;;;;;;18.08;6.25;;;;;;;24.79;43.57;99307.88;6159953;23;20447;-77
2021/08/02 03:46:54;;;;;;;22.02;6.95;;;;;;;24.93;43.29;99328.63;6159799;23;20036;-75
2021/08/02 03:49:21;;;;;;;16.30;6.78;;;;;;;25.10;43.15;99318.09;6184694;23;20025;-79
2021/08/02 03:51:57;;;;;;;33.70;6.47;;;;;;;25.29;42.60;99322.59;6134696;23;20503;-77
2021/08/02 03:54:25;;;;;;;15.70;6.63;;;;;;;25.47;42.40;99329.25;6110793;23;20032;-77
2021/08/02 03:56:51;;;;;;;11.07;6.25;;;;;;;25.58;41.86;99334.03;6210847;23;20020;-76
2021/08/02 03:59:17;;;;;;;17.73;6.32;;;;;;;25.68;41.74;99332.47;6160070;23;20021;-78
2021/08/02 04:01:44;;;;;;;14.65;5.60;;;;;;;25.81;41.37;99320.63;6111272;23;20039;-76
2021/08/02 04:04:10;;;;;;;15.35;6.15;;;;;;;25.95;41.18;99337.78;6159692;23;20021;-77
2021/08/02 04:06:36;;;;;;;17.38;5.93;;;;;;;26.01;40.96;99319.63;6159767;22;20055;-77
2021/08/02 04:09:04;;;;;;;11.45;5.40;;;;;;;26.19;40.75;99338.84;6183988;23;20393;-77
2021/08/02 04:11:30;;;;;;;18.25;5.85;;;;;;;26.34;40.67;99342.09;6133426;23;20116;-77
2021/08/02 04:13:57;;;;;;;19.48;5.68;;;;;;;26.48;40.25;99334.63;6208718;23;20020;-78
2021/08/02 04:16:23;;;;;;;12.18;5.70;;;;;;;26.60;40.18;99323.75;6182795;23;20465;-79
2021/08/02 04:18:49;;;;;;;18.40;5.57;;;;;;;26.78;39.69;99336.59;6183460;23;20076;-78
2021/08/02 04:21:15;;;;;;;19.20;6.53;;;;;;;26.85;39.75;99340.97;6210038;23;20024;-78
2021/08/02 04:23:43;;;;;;;19.00;5.00;;;;;;;26.94;39.67;99341.50;6135057;23;20025;-79
2021/08/02 04:26:12;;;;;;;10.70;5.13;;;;;;;27.16;39.23;99338.31;6159318;23;20021;-79
2021/08/02 04:28:39;;;;;;;12.82;5.43;;;;;;;27.33;39.20;99334.69;6135287;23;20021;-78
2021/08/02 04:31:05;;;;;;;32.30;5.60;;;;;;;27.49;38.65;99340.59;6086527;23;20017;-77
2021/08/02 04:33:31;;;;;;;21.98;5.40;;;;;;;27.47;38.38;99334.50;6210323;23;20344;-77
2021/08/02 04:35:57;;;;;;;20.88;5.32;;;;;;;27.62;38.59;99348.66;6134593;23;20048;-76
2021/08/02 04:38:23;;;;;;;24.33;5.25;;;;;;;27.75;38.11;99342.97;6210310;23;20070;-77
2021/08/02 04:40:49;;;;;;;29.08;6.32;;;;;;;27.91;38.01;99346.13;6183664;23;20088;-78
2021/08/02 04:43:16;;;;;;;15.73;5.67;;;;;;;27.99;37.63;99338.38;6210320;23;20502;-77
2021/08/02 04:45:42;;;;;;;18.85;5.15;;;;;;;28.02;37.62;99353.53;6159114;23;20013;-78
2021/08/02 04:48:08;;;;;;;20.85;5.53;;;;;;;28.12;37.37;99341.97;6210244;23;20337;-78
2021/08/02 04:50:34;;;;;;;27.58;5.60;;;;;;;28.26;37.07;99348.94;6184018;23;20052;-78
2021/08/02 04:53:00;;;;;;;22.05;5.00;;;;;;;28.38;36.63;99351.72;6183713;23;20100;-78
2021/08/02 04:55:26;;;;;;;15.57;6.68;;;;;;;28.39;36.88;99345.13;6159242;23;20111;-78
2021/08/02 04:57:52;;;;;;;24.33;7.78;;;;;;;28.22;37.71;99347.75;6183916;23;20095;-79
2021/08/02 05:00:18;;;;;;;25.20;8.15;;;;;;;28.05;38.01;99348.41;6209888;23;20048;-77
2021/08/02 05:02:44;;;;;;;22.67;7.82;;;;;;;28.15;38.17;99356.09;6159332;23;20069;-78
2021/08/02 05:05:10;;;;;;;20.52;7.30;;;;;;;28.28;38.08;99357.75;6210277;23;20020;-78
2021/08/02 05:07:36;;;;;;;31.17;8.00;;;;;;;28.37;38.38;99363.75;6211484;23;20013;-78
2021/08/02 05:10:02;;;;;;;22.08;7.95;;;;;;;28.47;38.38;99358.50;6185579;23;20348;-78
2021/08/02 05:12:28;;;;;;;24.15;9.15;;;;;;;28.60;38.42;99361.03;6185130;23;20482;-77
2021/08/02 05:14:54;;;;;;;26.88;10.57;;;;;;;28.68;38.27;99357.91;6160287;23;20028;-79
2021/08/02 05:17:20;;;;;;;28.00;10.27;;;;;;;28.64;38.41;99355.91;6185174;23;20451;-78
2021/08/02 05:19:46;;;;;;;31.92;11.18;;;;;;;28.74;38.12;99362.47;6212008;23;20104;-77
2021/08/02 05:22:11;;;;;;;37.78;12.85;;;;;;;28.74;38.23;99350.63;6211977;23;20019;-79
2021/08/02 05:24:38;;;;;;;22.10;11.23;;;;;;;28.82;38.01;99368.69;6212056;23;20103;-78
2021/08/02 05:27:04;;;;;;;30.20;10.93;;;;;;;28.87;37.67;99364.13;6185195;23;20063;-80
2021/08/02 05:29:30;;;;;;;33.28;11.80;;;;;;;28.88;37.79;99356.69;6185589;23;20051;-79
2021/08/02 05:31:56;;;;;;;31.85;11.57;;;;;;;29.06;37.60;99366.75;6211653;23;20017;-77
2021/08/02 05:34:22;;;;;;;31.88;12.05;;;;;;;29.25;37.44;99360.81;6212301;23;20021;-78
2021/08/02 05:36:48;;;;;;;25.70;11.70;;;;;;;29.42;37.05;99371.09;6211453;23;20401;-78
2021/08/02 05:39:14;;;;;;;33.80;10.60;;;;;;;29.55;37.04;99362.50;6135976;23;20040;-78
2021/08/02 05:41:41;;;;;;;19.33;8.85;;;;;;;29.67;36.38;99355.06;6135656;23;20043;-79
2021/08/02 05:44:07;;;;;;;16.55;7.88;;;;;;;29.86;35.71;99363.94;6160363;23;20109;-78
2021/08/02 05:46:33;;;;;;;17.42;7.53;;;;;;;30.03;35.06;99363.97;6211276;23;20012;-78
2021/08/02 05:48:58;;;;;;;21.17;7.38;;;;;;;30.15;34.54;99361.97;6185187;22;20055;-78
2021/08/02 05:51:25;;;;;;;21.23;6.05;;;;;;;30.16;33.85;99362.81;6112072;23;20035;-78
2021/08/02 05:53:51;;;;;;;15.13;5.40;;;;;;;30.15;33.76;99361.97;6185056;23;20395;-79
2021/08/02 05:56:17;;;;;;;21.25;4.88;;;;;;;30.21;33.72;99365.69;6185284;23;20024;-80
2021/08/02 05:58:43;;;;;;;23.05;5.57;;;;;;;30.26;33.25;99356.66;6160435;23;20318;-79
2021/08/02 06:01:11;;;;;;;12.75;5.28;;;;;;;30.23;32.99;99350.56;6160412;23;20020;-79
2021/08/02 06:03:37;;;;;;;19.95;6.60;;;;;;;30.12;33.20;99358.88;6160702;23;20047;-79
2021/08/02 06:06:03;;;;;;;20.50;6.72;;;;;;;30.11;33.53;99363.56;6211537;23;20021;-81
2021/08/02 06:08:29;;;;;;;21.45;6.65;;;;;;;30.28;33.75;99363.59;6211558;23;20021;-77
2021/08/02 06:10:55;;;;;;;22.95;6.10;;;;;;;30.52;33.22;99361.50;6211191;23;20024;-77
2021/08/02 06:13:21;;;;;;;18.17;6.28;;;;;;;30.56;31.99;99362.66;6184454;23;20017;-77
2021/08/02 06:15:47;;;;;;;10.57;5.75;;;;;;;30.42;32.11;99364.09;6160469;23;20104;-77
2021/08/02 06:18:13;;;;;;;15.80;6.53;;;;;;;30.33;32.51;99357.34;6135802;23;20051;-79
2021/08/02 06:20:39;;;;;;;12.20;5.75;;;;;;;30.40;32.39;99358.00;6211451;23;20507;-78
2021/08/02 06:23:05;;;;;;;17.90;6.25;;;;;;;30.43;32.38;99360.25;6135398;22;20022;-78
2021/08/02 06:25:31;;;;;;;13.15;5.00;;;;;;;30.48;32.09;99355.63;6112047;23;20016;-78
2021/08/02 06:27:57;;;;;;;14.82;6.13;;;;;;;30.69;32.09;99354.03;6160895;23;20337;-79
2021/08/02 06:30:24;;;;;;;21.77;5.97;;;;;;;30.87;32.11;99352.91;6111190;23;20100;-78
2021/08/02 06:32:50;;;;;;;16.85;6.45;;;;;;;31.03;31.88;99344.81;6160790;23;20016;-79
2021/08/02 06:35:16;;;;;;;24.23;7.13;;;;;;;31.23;31.25;99349.78;6087980;23;20052;-80
2021/08/02 06:37:42;;;;;;;23.38;7.45;;;;;;;31.09;31.76;99343.81;6160595;23;20020;-77
2021/08/02 06:40:12;;;;;;;17.17;5.30;;;;;;;31.24;31.47;99345.94;6160297;23;20486;-80
2021/08/02 06:42:38;;;;;;;17.13;6.03;;;;;;;31.51;31.18;99346.81;6135773;23;20013;-79
2021/08/02 06:45:05;;;;;;;12.77;5.35;;;;;;;31.67;30.71;99340.38;6111546;23;20044;-79
2021/08/02 06:47:31;;;;;;;9.35;4.20;;;;;;;31.72;30.04;99336.00;6160789;23;20017;-81
2021/08/02 06:50:01;;;;;;;13.52;4.03;;;;;;;31.92;29.70;99341.72;6135413;23;20484;-79
2021/08/02 06:52:27;;;;;;;12.98;3.80;;;;;;;31.95;29.90;99335.69;6087469;23;20051;-78
2021/08/02 06:54:53;;;;;;;16.70;4.47;;;;;;;32.16;30.05;99340.28;6111577;23;20042;-81
2021/08/02 06:57:19;;;;;;;12.93;4.35;;;;;;;32.36;29.46;99330.47;6087098;23;20047;-79
2021/08/02 06:59:45;;;;;;;8.23;4.43;;;;;;;32.28;29.12;99337.34;6135692;23;20021;-79
2021/08/02 07:02:11;;;;;;;8.30;4.00;;;;;;;32.31;29.12;99333.19;6160066;23;20157;-79
2021/08/02 07:04:37;;;;;;;12.20;4.30;;;;;;;32.45;29.36;99328.91;6159600;22;20016;-78
2021/08/02 07:07:03;;;;;;;18.48;4.60;;;;;;;32.55;28.96;99323.44;6136783;23;20043;-78
2021/08/02 07:09:29;;;;;;;10.13;3.97;;;;;;;32.50;28.74;99325.31;6137506;23;20024;-82
2021/08/02 07:11:55;;;;;;;17.02;4.60;;;;;;;32.11;29.41;99318.09;6184933;23;20021;-79
2021/08/02 07:14:21;;;;;;;12.98;3.63;;;;;;;32.26;28.78;99313.78;6184502;23;20020;-78
2021/08/02 07:16:47;;;;;;;8.32;3.50;;;;;;;32.46;28.68;99313.13;6184627;23;20025;-77
2021/08/02 07:19:13;;;;;;;11.50;4.40;;;;;;;32.86;28.42;99313.34;6135817;23;20073;-77
2021/08/02 07:21:39;;;;;;;12.32;4.45;;;;;;;32.83;28.39;99307.53;6184573;23;20443;-76
2021/08/02 07:24:05;;;;;;;14.02;3.75;;;;;;;32.47;28.71;99306.50;6111249;23;20020;-77
2021/08/02 07:26:31;;;;;;;10.43;3.72;;;;;;;32.54;29.00;99313.47;6135636;23;20021;-78
2021/08/02 07:29:02;;;;;;;9.63;3.70;;;;;;;32.72;28.54;99316.88;6135330;23;20099;-77
2021/08/02 07:31:28;;;;;;;11.30;3.63;;;;;;;32.83;28.05;99307.53;6162108;23;20020;-78
2021/08/02 07:33:54;;;;;;;10.52;3.80;;;;;;;32.95;27.64;99315.63;6160612;23;20017;-78
2021/08/02 07:36:21;;;;;;;6.43;3.20;;;;;;;32.27;27.16;99310.78;6135725;23;20023;-77
2021/08/02 07:38:47;;;;;;;4.00;2.97;;;;;;;31.75;27.89;99313.38;6211993;23;20024;-78
2021/08/02 07:41:14;;;;;;;12.30;3.40;;;;;;;31.47;28.25;99319.97;6135459;23;20339;-80
2021/08/02 07:43:40;;;;;;;3.58;2.75;;;;;;;31.45;28.46;99317.47;6160221;23;20028;-77
2021/08/02 07:46:06;;;;;;;5.22;2.70;;;;;;;31.34;28.43;99315.72;6135648;23;20016;-80
2021/08/02 07:48:34;;;;;;;7.68;2.70;;;;;;;31.30;28.14;99307.09;6134994;23;20021;-77
2021/08/02 07:51:00;;;;;;;8.90;3.00;;;;;;;31.41;28.34;99321.88;6159824;23;20376;-79
2021/08/02 07:53:26;;;;;;;10.80;2.75;;;;;;;31.39;28.23;99300.00;6159936;23;20048;-78
2021/08/02 07:55:52;;;;;;;4.10;2.90;;;;;;;31.61;27.85;99313.78;6136147;23;20133;-80
2021/08/02 07:58:22;;;;;;;9.65;2.83;;;;;;;31.73;27.70;99302.56;6111135;23;20020;-80
2021/08/02 08:00:48;;;;;;;4.18;3.00;;;;;;;31.54;27.85;99307.63;6111565;23;20051;-80
2021/08/02 08:03:15;;;;;;;7.78;2.70;;;;;;;31.52;27.56;99309.81;6263817;22;20040;-82
2021/08/02 08:05:41;;;;;;;9.15;2.80;;;;;;;31.72;27.49;99292.59;6110685;23;20030;-79
2021/08/02 08:08:07;;;;;;;5.53;2.65;;;;;;;31.76;27.20;99315.03;6237289;23;20016;-80
2021/08/02 08:10:33;;;;;;;4.70;2.40;;;;;;;31.74;26.88;99301.44;6160319;23;20072;-79
2021/08/02 08:12:59;;;;;;;4.70;2.88;;;;;;;31.74;27.21;99300.63;6135652;23;20020;-79
2021/08/02 08:15:25;;;;;;;6.22;2.60;;;;;;;31.76;27.25;99301.19;6135036;23;20397;-78
2021/08/02 08:17:52;;;;;;;9.77;2.58;;;;;;;31.91;26.93;99295.84;6086239;23;20048;-79
2021/08/02 08:20:20;;;;;;;6.00;2.75;;;;;;;32.06;26.79;99282.13;6184339;23;20095;-78
2021/08/02 08:22:46;;;;;;;8.68;2.92;;;;;;;32.17;26.87;99294.94;6184480;23;20017;-77
2021/08/02 08:25:12;;;;;;;10.20;2.38;;;;;;;32.23;26.28;99287.50;6135447;23;20017;-80
2021/08/02 08:27:38;;;;;;;5.88;2.88;;;;;;;32.27;26.37;99283.13;6159733;23;20035;-81
2021/08/02 08:30:06;;;;;;;3.85;2.83;;;;;;;32.36;26.26;99288.97;6159785;23;20393;-78
2021/08/02 08:32:32;;;;;;;8.02;2.97;;;;;;;32.34;26.33;99263.50;6184638;23;20013;-79
2021/08/02 08:34:58;;;;;;;8.57;2.80;;;;;;;32.42;26.18;99285.16;6210548;23;20017;-80
2021/08/02 08:37:24;;;;;;;7.72;2.80;;;;;;;32.35;26.47;99287.31;6134838;23;20029;-79
2021/08/02 08:39:51;;;;;;;6.20;2.50;;;;;;;32.43;26.32;99275.78;6111990;23;20021;-81
2021/08/02 08:42:17;;;;;;;12.20;3.22;;;;;;;32.56;25.96;99278.06;6087679;23;20323;-80
2021/08/02 08:44:43;;;;;;;4.75;2.50;;;;;;;32.89;25.66;99273.22;6212642;23;20017;-78
2021/08/02 08:47:11;;;;;;;4.20;2.70;;;;;;;33.08;25.18;99277.19;6112235;23;20359;-78
2021/08/02 08:49:39;;;;;;;3.42;2.58;;;;;;;32.86;24.90;99273.75;6186536;23;20042;-82
2021/08/02 08:52:06;;;;;;;5.65;2.55;;;;;;;33.18;24.84;99270.03;6161480;23;20025;-80
2021/08/02 08:54:32;;;;;;;6.70;2.60;;;;;;;33.68;24.48;99262.94;6136553;23;20016;-78
2021/08/02 08:56:59;;;;;;;5.83;2.80;;;;;;;34.22;24.14;99262.38;6136950;23;20028;-79
2021/08/02 08:59:26;;;;;;;3.35;2.60;;;;;;;34.54;24.08;99260.13;6136541;23;20256;-78
2021/08/02 09:02:02;;;;;;;8.98;2.78;;;;;;;34.58;23.72;99276.22;6160866;22;20020;-76
2021/08/02 09:04:30;;;;;;;6.22;2.60;;;;;;;34.41;23.93;99266.22;6185595;22;20028;-78
2021/08/02 09:07:00;;;;;;;8.70;2.78;;;;;;;34.46;23.59;99277.31;6160518;23;20348;-78
2021/08/02 09:09:35;;;;;;;4.10;2.63;;;;;;;34.53;23.12;99275.13;6160692;23;20081;-79
2021/08/02 09:12:13;;;;;;;6.80;3.10;;;;;;;33.82;23.96;99280.69;6161388;23;20490;-77
2021/08/02 09:14:55;;;;;;;4.72;2.60;;;;;;;33.43;24.31;99272.84;6186546;23;20520;-78
2021/08/02 09:17:38;;;;;;;6.22;2.75;;;;;;;33.43;24.06;99258.16;6112437;23;20023;-78
2021/08/02 09:20:06;;;;;;;3.40;2.50;;;;;;;33.76;24.17;99263.22;6136776;23;20487;-78
2021/08/02 09:22:34;;;;;;;13.75;2.80;;;;;;;34.45;23.47;99249.84;6136112;23;20066;-78
2021/08/02 09:25:13;;;;;;;;;;;;;;;34.80;23.39;99260.03;6161452;23;20482;-80
2021/08/02 09:27:40;;;;;;;9.45;3.28;;;;;;;34.68;22.90;99260.34;6160567;23;20296;-81
2021/08/02 09:30:23;;;;;;;7.65;2.90;;;;;;;34.55;23.17;99256.22;6161446;23;20392;-80
2021/08/02 09:32:57;;;;;;;11.98;2.80;;;;;;;34.92;23.12;99246.63;6137163;23;20031;-79
2021/08/02 09:35:30;;;;;;;17.85;2.83;;;;;;;35.27;22.53;99251.19;6185444;22;20021;-79
2021/08/02 09:38:10;;;;;;;4.00;2.75;;;;;;;35.33;21.78;99242.84;6136195;23;20451;-79
2021/08/02 09:40:48;;;;;;;5.35;2.40;;;;;;;35.55;21.89;99240.47;6160840;23;20032;-78
2021/08/02 09:43:17;;;;;;;3.72;2.13;;;;;;;35.43;21.78;99238.03;6155779;23;20069;-78
2021/08/02 09:45:50;;;;;;;3.35;2.35;;;;;;;34.84;21.90;99241.69;6156142;23;20028;-82
2021/08/02 09:48:17;;;;;;;13.00;2.70;;;;;;;34.71;22.31;99253.38;6155556;23;20097;-77
2021/08/02 09:50:44;;;;;;;5.33;2.27;;;;;;;35.26;21.85;99243.97;6155182;23;20032;-78
2021/08/02 09:53:11;;;;;;;7.40;2.20;;;;;;;35.96;21.30;99249.31;6180188;23;20021;-79
2021/08/02 09:55:39;;;;;;;3.80;2.50;;;;;;;36.15;21.47;99243.03;6131247;23;20143;-79
2021/08/02 09:58:05;;;;;;;4.82;2.50;;;;;;;36.13;21.15;99256.41;6155729;23;20032;-79
2021/08/02 10:00:32;;;;;;;5.28;2.55;;;;;;;36.45;21.34;99256.63;6154455;23;20021;-76
2021/08/02 10:02:58;;;;;;;7.43;2.60;;;;;;;36.46;20.77;99255.53;6131308;23;20024;-79
2021/08/02 10:05:24;;;;;;;9.00;2.30;;;;;;;36.34;20.80;99252.31;6180100;23;20025;-78
2021/08/02 10:07:50;;;;;;;7.75;2.40;;;;;;;36.30;20.44;99234.53;6181726;23;20512;-79
2021/08/02 10:10:17;;;;;;;4.10;2.40;;;;;;;36.47;20.74;99242.44;6106537;23;20040;-77
2021/08/02 10:12:47;;;;;;;8.77;2.38;;;;;;;36.50;20.82;99249.38;6180120;23;20020;-79
2021/08/02 10:15:17;;;;;;;2.97;2.40;;;;;;;37.10;20.29;99241.41;6155290;23;20023;-79
2021/08/02 10:17:48;;;;;;;9.57;2.53;;;;;;;36.98;20.72;99239.06;6155722;23;20099;-79
2021/08/02 10:20:28;;;;;;;3.17;2.30;;;;;;;37.46;20.01;99226.94;6155825;23;20025;-77
2021/08/02 10:22:54;;;;;;;3.63;2.38;;;;;;;37.68;19.67;99229.91;6155741;23;20024;-77
2021/08/02 10:25:42;;;;;;;4.60;2.30;;;;;;;36.92;19.94;99238.25;6155913;23;20017;-79
2021/08/02 10:28:12;;;;;;;8.25;2.20;;;;;;;36.12;20.89;99232.50;6132686;23;20112;-77
2021/08/02 10:30:39;;;;;;;5.82;2.90;;;;;;;35.69;21.03;99232.28;6155049;23;20457;-78
2021/08/02 10:33:05;;;;;;;5.88;2.67;;;;;;;36.42;20.49;99217.41;6179802;23;20074;-79
2021/08/02 10:35:42;;;;;;;5.82;2.33;;;;;;;36.73;20.31;99223.47;6179877;23;20055;-78
2021/08/02 10:38:12;;;;;;;2.50;2.30;;;;;;;36.73;20.33;99226.25;6155922;23;20092;-78
2021/08/02 10:40:48;;;;;;;4.32;2.33;;;;;;;37.25;19.90;99221.66;6154933;23;20020;-78
2021/08/02 10:43:39;;;;;;;8.45;2.38;;;;;;;37.74;18.95;99228.72;6154848;23;20057;-78
2021/08/02 10:46:25;;;;;;;3.13;2.55;;;;;;;37.40;19.83;99215.03;6131379;23;20052;-79
2021/08/02 10:48:53;;;;;;;6.93;2.50;;;;;;;37.59;19.64;99218.63;6156507;23;20025;-78
2021/08/02 10:51:23;;;;;;;4.32;2.22;;;;;;;37.43;19.41;99220.84;6179529;23;20240;-79
2021/08/02 10:53:56;;;;;;;7.28;2.35;;;;;;;37.46;19.25;99207.41;6130631;23;20024;-78
2021/08/02 10:56:26;;;;;;;8.32;2.47;;;;;;;38.38;19.21;99209.44;6130051;23;20049;-77
2021/08/02 10:58:52;;;;;;;12.10;2.60;;;;;;;39.18;18.27;99210.81;6154800;23;20099;-78
2021/08/02 11:01:20;;;;;;;7.30;2.70;;;;;;;39.76;17.53;99201.63;6179262;23;20027;-81
2021/08/02 11:03:46;;;;;;;5.57;2.45;;;;;;;38.95;18.21;99211.91;6130560;23;20464;-78
2021/08/02 11:06:19;;;;;;;5.18;2.58;;;;;;;38.60;18.65;99217.94;6106408;23;20017;-79
2021/08/02 11:08:51;;;;;;;15.48;2.60;;;;;;;39.64;18.25;99195.72;6179451;23;20017;-80
2021/08/02 11:11:26;;;;;;;5.55;2.72;;;;;;;40.77;17.53;99207.53;6154951;23;20092;-79
2021/08/02 11:14:03;;;;;;;5.80;2.50;;;;;;;41.64;16.81;99204.81;6155011;23;20013;-77
2021/08/02 11:16:29;;;;;;;6.57;2.55;;;;;;;41.91;16.60;99203.66;6180813;23;20017;-77
2021/08/02 11:18:55;;;;;;;6.68;2.42;;;;;;;41.72;16.58;99202.00;6130105;23;20021;-76
2021/08/02 11:21:23;;;;;;;7.57;2.60;;;;;;;41.20;16.80;99201.19;6105843;23;20017;-80
2021/08/02 11:23:49;;;;;;;4.85;2.17;;;;;;;41.50;16.50;99199.41;6130561;23;20028;-79
2021/08/02 11:26:15;;;;;;;6.00;2.35;;;;;;;40.95;16.56;99185.97;6180791;23;20021;-76
2021/08/02 11:28:45;;;;;;;6.28;2.10;;;;;;;41.44;16.21;99201.53;6181218;23;20020;-80
2021/08/02 11:31:11;;;;;;;3.83;2.40;;;;;;;41.96;16.56;99189.41;6154995;23;20028;-80
2021/08/02 11:33:41;;;;;;;7.47;2.90;;;;;;;42.48;15.85;99199.66;6154987;23;20047;-78